Time;durP1;ratioP1;P1;durP2;ratioP2;P2;SDS_P1;SDS_P2;PMS_P1;PMS_P2;Temp;Humidity;BMP_temperature;BMP_pressure;BME280_temperature;BME280_humidity;BME280_pressure;Samples;Min_cycle;Max_cycle;Signal;HPM_P1;HPM_P2
2024/04/13 00:09:49;;;;;;;10.90;4.38;;;6.40;99.90;;;;;;8251696;28;20012;-83
2024/04/13 00:25:09;;;;;;;8.32;4.50;;;6.30;99.90;;;;;;8118262;29;20007;-83
2024/04/13 00:30:04;;;;;;;8.68;4.00;;;6.30;99.90;;;;;;8309882;28;20052;-83
2024/04/13 00:34:02;;;;;;;;;;;6.20;99.90;;;;;;8440649;27;20040;-83
2024/04/13 00:39:00;;;;;;;7.10;3.83;;;6.20;99.90;;;;;;8555336;27;19936;-83
2024/04/13 00:48:53;;;;;;;7.97;4.78;;;5.90;99.90;;;;;;8104480;29;20021;-83
2024/04/13 00:58:41;;;;;;;7.25;4.68;;;5.70;99.90;;;;;;7977872;29;21034;-83
2024/04/13 01:03:09;;;;;;;8.35;5.07;;;5.70;99.90;;;;;;8132818;28;20112;-83
2024/04/13 01:07:18;;;;;;;9.23;4.70;;;5.70;99.90;;;;;;8435569;27;20008;-83
2024/04/13 01:12:45;;;;;;;;;;;;;;;;;;;;;
2024/04/13 01:17:10;;;;;;;8.50;4.82;;;5.70;99.90;;;;;;8568051;27;20016;-83
2024/04/13 01:21:55;;;;;;;10.38;5.30;;;5.80;99.90;;;;;;8511157;27;20013;-84
2024/04/13 01:26:36;;;;;;;9.25;5.72;;;5.70;99.90;;;;;;8547863;27;20012;-84
2024/04/13 01:36:26;;;;;;;10.68;5.78;;;5.80;99.90;;;;;;8524917;27;20156;-84
2024/04/13 01:40:27;;;;;;;8.65;5.32;;;5.80;99.90;;;;;;8549741;27;20000;-84
2024/04/13 01:44:51;;;;;;;10.13;5.72;;;5.70;99.90;;;;;;8572557;27;20041;-84
2024/04/13 01:49:11;;;;;;;10.10;5.13;;;5.60;99.90;;;;;;8553295;27;20004;-83
2024/04/13 01:53:38;;;;;;;6.43;3.90;;;5.50;99.90;;;;;;8563945;27;20012;-83
2024/04/13 01:58:36;;;;;;;;;;;;;;;;;;;;;
2024/04/13 02:02:31;;;;;;;12.02;5.70;;;5.50;99.90;;;;;;8478394;27;20026;-83
2024/04/13 02:06:52;;;;;;;10.25;5.10;;;5.50;99.90;;;;;;8585989;27;20036;-83
2024/04/13 02:11:23;;;;;;;;;;;;;;;;;;;;;
2024/04/13 02:15:27;;;;;;;10.40;5.28;;;5.50;99.90;;;;;;8590586;27;20033;-83
2024/04/13 02:19:55;;;;;;;9.52;4.75;;;5.40;99.90;;;;;;8584978;27;20365;-84
2024/04/13 02:24:35;;;;;;;;;;;;;;;;;;;;;
2024/04/13 02:34:03;;;;;;;12.13;5.20;;;5.20;99.90;;;;;;8577061;27;20466;-84
2024/04/13 02:38:47;;;;;;;8.77;4.72;;;5.10;99.90;;;;;;8590084;27;20213;-84
2024/04/13 02:43:31;;;;;;;;;;;;;;;;;;;;;
2024/04/13 02:48:04;;;;;;;9.35;5.15;;;5.10;99.90;;;;;;8590568;27;20041;-83
2024/04/13 03:02:08;;;;;;;9.25;4.70;;;5.10;99.90;;;;;;8421264;28;20054;-84
2024/04/13 03:06:12;;;;;;;8.93;5.10;;;5.00;99.90;;;;;;8475939;27;20004;-84
2024/04/13 03:15:26;;;;;;;10.00;5.78;;;5.00;99.90;;;;;;8517091;27;19997;-84
2024/04/13 03:19:29;;;;;;;8.82;5.40;;;5.10;99.90;;;;;;8510363;27;20012;-84
2024/04/13 03:23:32;;;;;;;9.40;5.38;;;5.10;99.90;;;;;;8570665;27;20004;-84
2024/04/13 03:27:33;;;;;;;9.52;4.80;;;5.20;99.90;;;;;;8546199;27;20019;-84
2024/04/13 03:31:33;;;;;;;8.80;5.05;;;5.10;99.90;;;;;;8556603;27;20012;-83
2024/04/13 03:35:38;;;;;;;8.52;5.28;;;5.00;99.90;;;;;;8556816;27;20004;-84
2024/04/13 03:39:40;;;;;;;8.02;5.07;;;5.00;99.90;;;;;;8583796;27;20004;-84
2024/04/13 03:43:41;;;;;;;8.55;5.57;;;5.00;99.90;;;;;;8554463;27;20004;-84
2024/04/13 03:47:43;;;;;;;8.82;5.45;;;5.00;99.90;;;;;;8547774;27;20011;-84
2024/04/13 03:51:43;;;;;;;7.63;5.03;;;5.00;99.90;;;;;;8592516;27;20512;-84
2024/04/13 03:55:44;;;;;;;8.35;5.38;;;5.00;99.90;;;;;;8553782;27;20005;-84
2024/04/13 03:59:58;;;;;;;7.93;4.70;;;4.90;99.90;;;;;;8553976;27;20000;-84
2024/04/13 04:04:02;;;;;;;9.98;5.45;;;4.90;99.90;;;;;;8539978;27;20012;-83
2024/04/13 04:08:04;;;;;;;10.18;5.30;;;4.80;99.90;;;;;;8526729;27;20004;-83
2024/04/13 04:12:07;;;;;;;11.52;5.70;;;4.80;99.90;;;;;;8521972;27;20005;-82
2024/04/13 04:16:08;;;;;;;10.27;5.55;;;4.70;99.90;;;;;;8519005;27;20091;-84
2024/04/13 04:20:25;;;;;;;11.20;5.30;;;4.70;99.90;;;;;;8518225;27;20050;-83
2024/04/13 04:24:25;;;;;;;12.73;5.53;;;4.70;99.90;;;;;;8530115;27;20001;-83
2024/04/13 04:28:27;;;;;;;11.00;5.65;;;4.70;99.90;;;;;;8525298;27;20012;-83
2024/04/13 04:32:27;;;;;;;9.40;4.93;;;4.70;99.90;;;;;;8556197;27;20004;-82
2024/04/13 04:36:28;;;;;;;10.43;5.55;;;4.70;99.90;;;;;;8549434;27;20222;-83
2024/04/13 04:40:34;;;;;;;7.85;5.25;;;4.80;99.90;;;;;;8557625;27;20008;-84
2024/04/13 04:45:11;;;;;;;10.65;5.07;;;4.90;99.90;;;;;;8522172;27;20005;-83
2024/04/13 04:49:17;;;;;;;8.75;5.05;;;4.90;99.90;;;;;;8315514;28;20585;-84
2024/04/13 04:53:17;;;;;;;6.95;4.10;;;4.70;99.90;;;;;;8451397;27;20092;-83
2024/04/13 04:57:19;;;;;;;9.02;4.97;;;4.70;99.90;;;;;;8551672;27;20120;-83
2024/04/13 05:01:19;;;;;;;7.22;4.43;;;4.60;99.90;;;;;;8528494;27;20083;-84
2024/04/13 05:06:05;;;;;;;10.30;5.15;;;4.70;99.90;;;;;;8553034;27;20004;-84
2024/04/13 05:10:46;;;;;;;6.00;4.15;;;4.80;99.90;;;;;;8552617;27;19996;-82
2024/04/13 05:19:11;;;;;;;8.55;5.07;;;5.00;99.90;;;;;;8442780;27;20314;-83
2024/04/13 05:23:42;;;;;;;8.20;5.13;;;5.20;99.90;;;;;;8530075;27;20004;-84
2024/04/13 05:27:49;;;;;;;13.00;5.88;;;5.40;99.90;;;;;;8530215;27;20420;-83
2024/04/13 05:32:13;;;;;;;;;;;;;;;;;;;;;
2024/04/13 05:36:14;;;;;;;9.55;6.10;;;5.90;99.90;;;;;;8560537;27;20004;-84
2024/04/13 05:40:15;;;;;;;10.48;6.00;;;6.10;99.90;;;;;;8543726;27;20045;-84
2024/04/13 05:44:15;;;;;;;10.57;6.28;;;6.30;99.90;;;;;;8524957;27;20001;-83
2024/04/13 05:48:16;;;;;;;10.30;5.70;;;6.50;99.90;;;;;;8534174;27;20005;-83
2024/04/13 05:57:15;;;;;;;10.82;6.20;;;7.20;99.90;;;;;;8568436;22;20019;-84
2024/04/13 06:01:19;;;;;;;9.30;5.68;;;7.50;99.90;;;;;;8622345;27;20014;-84
2024/04/13 06:05:23;;;;;;;10.38;5.65;;;7.50;99.90;;;;;;8595956;27;20004;-84
2024/04/13 06:09:24;;;;;;;8.90;5.32;;;7.60;99.90;;;;;;8559574;27;20020;-84
2024/04/13 06:13:25;;;;;;;13.68;6.97;;;7.70;99.90;;;;;;8524283;27;20012;-84
2024/04/13 06:17:25;;;;;;;9.65;5.95;;;8.40;99.90;;;;;;8523151;27;20004;-84
2024/04/13 06:21:31;;;;;;;9.82;5.88;;;8.70;99.90;;;;;;8520404;27;20020;-84
2024/04/13 06:25:32;;;;;;;11.20;6.57;;;8.60;99.90;;;;;;8547693;27;19997;-84
2024/04/13 06:29:32;;;;;;;8.48;5.97;;;8.70;99.90;;;;;;8545330;27;20023;-85
2024/04/13 06:34:09;;;;;;;9.60;6.15;;;8.70;99.90;;;;;;8552513;27;19997;-85
2024/04/13 06:38:23;;;;;;;7.75;5.43;;;9.00;99.90;;;;;;8548357;27;20085;-84
2024/04/13 06:42:24;;;;;;;9.93;5.75;;;9.20;99.90;;;;;;8547822;27;20004;-84
2024/04/13 06:50:37;;;;;;;10.82;5.65;;;9.90;99.90;;;;;;8686866;22;20015;-85
2024/04/13 07:09:28;;;;;;;8.43;5.57;;;12.60;99.90;;;;;;8465123;27;20190;-87
2024/04/13 07:13:24;;;;;;;6.97;5.20;;;13.40;99.90;;;;;;8466710;27;20134;-82
2024/04/13 07:17:25;;;;;;;6.50;4.30;;;15.30;99.90;;;;;;8534892;27;20019;-80
2024/04/13 07:21:26;;;;;;;6.00;4.43;;;15.90;99.90;;;;;;8534361;27;20004;-80
2024/04/13 07:25:26;;;;;;;5.15;4.18;;;16.80;99.90;;;;;;8563250;27;20000;-80
2024/04/13 07:29:27;;;;;;;6.88;4.40;;;17.10;99.90;;;;;;8520783;27;20277;-80
2024/04/13 07:33:27;;;;;;;5.68;4.13;;;18.00;99.90;;;;;;8554229;27;20013;-80
2024/04/13 07:37:28;;;;;;;8.63;4.20;;;18.60;99.90;;;;;;8550242;27;20373;-80
2024/04/13 07:41:29;;;;;;;4.93;3.67;;;18.70;99.90;;;;;;8554186;27;20143;-79
2024/04/13 07:45:29;;;;;;;7.40;3.65;;;19.40;99.90;;;;;;8511705;27;20005;-79
2024/04/13 07:49:30;;;;;;;5.57;3.30;;;19.50;99.90;;;;;;8522089;27;20182;-80
2024/04/13 07:53:30;;;;;;;4.65;3.90;;;19.40;99.90;;;;;;8527510;27;20012;-81
2024/04/13 07:57:31;;;;;;;5.10;4.00;;;19.60;99.90;;;;;;8574978;27;20004;-81
2024/04/13 08:01:31;;;;;;;4.05;3.47;;;19.80;99.90;;;;;;8576522;27;20081;-81
2024/04/13 08:05:32;;;;;;;6.13;3.28;;;20.00;99.90;;;;;;8569836;27;20019;-83
2024/04/13 08:09:36;;;;;;;5.78;3.42;;;20.10;99.90;;;;;;8527319;27;20004;-83
2024/04/13 08:13:37;;;;;;;4.00;2.15;;;20.80;99.90;;;;;;8538248;27;20044;-82
2024/04/13 08:17:38;;;;;;;4.20;3.05;;;21.10;99.90;;;;;;8544385;27;20041;-83
2024/04/13 08:21:38;;;;;;;3.83;2.78;;;21.10;99.90;;;;;;8516285;27;20007;-82
2024/04/13 08:25:39;;;;;;;4.25;3.05;;;20.90;99.90;;;;;;8528328;27;20024;-82
2024/04/13 08:29:39;;;;;;;4.53;3.20;;;21.20;99.90;;;;;;8603356;22;20667;-85
2024/04/13 08:33:40;;;;;;;4.70;3.30;;;21.30;99.90;;;;;;8600056;27;20018;-86
2024/04/13 08:37:40;;;;;;;4.53;2.97;;;21.30;99.90;;;;;;8571084;27;20007;-86
2024/04/13 08:41:49;;;;;;;3.83;2.97;;;21.80;99.90;;;;;;8559244;27;20000;-85
2024/04/13 08:45:51;;;;;;;3.10;2.80;;;21.90;99.90;;;;;;8555959;27;20019;-85
2024/04/13 08:49:54;;;;;;;5.47;3.28;;;22.40;99.90;;;;;;8569874;27;20478;-84
2024/04/13 08:53:55;;;;;;;5.20;3.20;;;22.50;99.90;;;;;;8548712;27;20022;-84
2024/04/13 08:57:57;;;;;;;5.05;3.55;;;22.10;99.90;;;;;;8561175;27;20397;-85
2024/04/13 09:02:01;;;;;;;7.15;3.30;;;22.70;99.90;;;;;;8540489;27;20004;-84
2024/04/13 09:06:51;;;;;;;4.80;3.05;;;22.90;99.90;;;;;;8575105;27;20004;-84
2024/04/13 09:12:00;;;;;;;4.90;3.50;;;23.20;99.90;;;;;;8539605;27;20468;-84
2024/04/13 09:16:31;;;;;;;4.95;3.33;;;23.50;99.90;;;;;;8451131;27;20364;-85
2024/04/13 09:20:35;;;;;;;4.23;3.10;;;22.70;99.90;;;;;;8598083;22;20007;-84
2024/04/13 09:24:45;;;;;;;4.82;3.25;;;22.50;99.90;;;;;;8645818;27;20234;-85
2024/04/13 09:29:27;;;;;;;5.45;3.30;;;22.80;99.90;;;;;;8601526;27;20405;-83
2024/04/13 09:38:23;;;;;;;7.40;3.90;;;22.90;99.90;;;;;;8473690;27;20017;-84
2024/04/13 09:42:36;;;;;;;6.63;3.45;;;23.20;99.90;;;;;;8530967;27;20010;-85
2024/04/13 09:47:27;;;;;;;4.00;2.83;;;23.30;99.90;;;;;;8596575;27;20021;-84
2024/04/13 09:51:54;;;;;;;5.13;3.08;;;23.20;99.90;;;;;;8561553;27;20514;-85
2024/04/13 09:56:27;;;;;;;4.35;2.60;;;23.60;99.90;;;;;;8587544;27;20007;-84
2024/04/13 10:00:39;;;;;;;3.30;2.60;;;24.00;99.90;;;;;;8594623;27;20011;-84
2024/04/13 10:04:42;;;;;;;3.20;2.70;;;24.00;99.90;;;;;;8561490;27;21084;-85
2024/04/13 10:08:47;;;;;;;6.10;2.80;;;24.10;99.90;;;;;;8589172;27;20142;-84
2024/04/13 10:12:53;;;;;;;3.25;2.40;;;24.00;99.90;;;;;;8575928;27;20000;-85
2024/04/13 10:17:07;;;;;;;4.70;2.65;;;24.00;99.90;;;;;;8568838;27;20336;-85
2024/04/13 10:21:13;;;;;;;4.57;2.72;;;24.30;99.90;;;;;;8599856;27;20008;-84
2024/04/13 10:25:18;;;;;;;3.47;2.45;;;24.80;99.90;;;;;;8611948;27;20465;-83
2024/04/13 10:29:25;;;;;;;5.35;3.25;;;25.30;99.90;;;;;;8613721;27;20008;-84
2024/04/13 10:33:27;;;;;;;4.63;3.20;;;26.20;99.20;;;;;;8607352;27;20083;-84
2024/04/13 10:38:12;;;;;;;4.32;3.17;;;26.50;98.70;;;;;;8605799;27;20017;-85
2024/04/13 10:42:22;;;;;;;4.68;3.28;;;27.20;97.40;;;;;;8572247;27;20497;-84
2024/04/13 10:46:24;;;;;;;4.25;3.03;;;27.70;98.80;;;;;;8574804;27;19999;-84
2024/04/13 10:50:35;;;;;;;7.07;3.50;;;28.30;95.50;;;;;;8577748;27;20012;-84
2024/04/13 10:54:36;;;;;;;5.55;3.65;;;28.00;92.70;;;;;;8574184;27;20055;-84
2024/04/13 10:58:39;;;;;;;5.75;3.35;;;28.30;94.80;;;;;;8599172;27;20055;-84
2024/04/13 11:02:46;;;;;;;7.20;3.45;;;28.60;94.30;;;;;;8601575;27;20100;-85
2024/04/13 11:07:05;;;;;;;4.20;2.58;;;29.00;91.40;;;;;;8572130;27;20081;-87
2024/04/13 11:11:09;;;;;;;4.18;2.88;;;29.50;92.00;;;;;;8580674;27;20544;-84
2024/04/13 11:15:32;;;;;;;4.25;2.67;;;30.30;84.60;;;;;;8602257;27;20004;-84
2024/04/13 11:19:59;;;;;;;4.20;3.15;;;30.50;84.20;;;;;;8596617;27;20066;-86
2024/04/13 11:24:02;;;;;;;2.72;1.90;;;31.00;76.80;;;;;;8578578;27;19999;-84
2024/04/13 11:28:07;;;;;;;3.00;2.22;;;30.90;77.10;;;;;;8598427;27;20561;-85
2024/04/13 11:32:23;;;;;;;4.82;2.55;;;30.90;78.20;;;;;;8583510;27;20350;-85
2024/04/13 11:36:26;;;;;;;2.80;2.20;;;30.70;77.50;;;;;;8567024;27;20015;-86
2024/04/13 11:40:36;;;;;;;3.47;1.80;;;30.50;71.60;;;;;;8573145;27;20083;-86
2024/04/13 11:44:40;;;;;;;3.27;2.20;;;30.50;68.50;;;;;;8571734;27;20000;-83
2024/04/13 11:48:55;;;;;;;5.75;2.33;;;29.90;68.40;;;;;;8598656;27;20008;-85
2024/04/13 11:52:56;;;;;;;3.70;1.90;;;30.10;72.40;;;;;;8575055;27;20019;-84
2024/04/13 11:56:57;;;;;;;3.63;2.20;;;30.30;68.40;;;;;;8569672;27;20594;-84
2024/04/13 12:00:57;;;;;;;3.88;1.40;;;30.00;66.20;;;;;;8569451;27;20476;-85
2024/04/13 12:04:58;;;;;;;1.70;1.38;;;30.90;69.50;;;;;;8573260;27;20563;-85
2024/04/13 12:09:00;;;;;;;3.28;1.27;;;30.90;69.20;;;;;;8575226;27;20015;-85
2024/04/13 12:13:43;;;;;;;2.22;1.30;;;30.40;69.00;;;;;;8573619;27;20022;-86
2024/04/13 12:17:47;;;;;;;2.10;1.33;;;30.30;70.30;;;;;;8434291;22;20584;-85
2024/04/13 12:22:02;;;;;;;1.23;1.10;;;30.00;66.00;;;;;;8598530;27;20020;-85
2024/04/13 12:26:06;;;;;;;4.45;1.40;;;29.50;76.80;;;;;;8562026;27;20015;-85
2024/04/13 12:30:07;;;;;;;1.30;1.20;;;30.90;66.50;;;;;;8566754;27;20076;-85
2024/04/13 12:34:41;;;;;;;2.92;1.27;;;31.00;68.30;;;;;;8581428;27;19999;-85
2024/04/13 12:38:41;;;;;;;2.05;1.25;;;31.20;61.90;;;;;;8564197;27;20083;-85
2024/04/13 12:42:42;;;;;;;1.83;1.42;;;31.20;63.00;;;;;;8574502;27;20007;-85
2024/04/13 12:46:43;;;;;;;1.80;1.15;;;31.20;61.80;;;;;;8599107;27;20080;-85
2024/04/13 12:50:43;;;;;;;1.83;1.40;;;31.40;61.80;;;;;;8588662;27;20019;-84
2024/04/13 12:54:48;;;;;;;2.53;1.15;;;31.50;59.90;;;;;;8586516;27;20339;-86
2024/04/13 12:58:48;;;;;;;2.03;1.08;;;31.10;61.20;;;;;;8588653;27;20067;-85
2024/04/13 13:02:51;;;;;;;2.30;1.20;;;31.90;62.90;;;;;;8607631;27;20504;-85
2024/04/13 13:06:53;;;;;;;2.45;1.27;;;32.90;62.10;;;;;;8584157;27;20471;-87
2024/04/13 13:10:53;;;;;;;2.10;1.20;;;31.50;58.70;;;;;;8581683;27;20842;-86
2024/04/13 13:15:02;;;;;;;2.00;1.13;;;29.50;61.90;;;;;;8615374;27;20004;-85
2024/04/13 13:19:06;;;;;;;1.75;1.05;;;29.70;64.70;;;;;;8615439;27;20082;-86
2024/04/13 13:23:06;;;;;;;1.50;1.10;;;30.40;59.80;;;;;;8616728;27;20012;-84
2024/04/13 13:27:07;;;;;;;1.00;0.90;;;31.30;56.70;;;;;;8620122;27;20023;-84
2024/04/13 13:31:08;;;;;;;1.20;1.00;;;31.60;56.00;;;;;;8595980;27;20574;-85
2024/04/13 13:35:11;;;;;;;1.50;1.10;;;31.50;57.40;;;;;;8587717;27;20488;-85
2024/04/13 13:39:11;;;;;;;1.20;0.90;;;32.20;55.90;;;;;;8588766;27;20000;-85
2024/04/13 13:43:12;;;;;;;1.55;1.15;;;33.10;57.10;;;;;;8587998;27;20017;-85
2024/04/13 13:47:13;;;;;;;1.00;0.90;;;33.80;50.50;;;;;;8616740;27;19996;-84
2024/04/13 13:51:13;;;;;;;3.33;1.10;;;33.60;51.70;;;;;;8596114;27;20385;-84
2024/04/13 13:55:14;;;;;;;3.10;1.08;;;33.50;51.40;;;;;;8598903;27;20004;-84
2024/04/13 13:59:14;;;;;;;1.00;0.90;;;34.50;49.70;;;;;;8618880;27;20014;-85
2024/04/13 14:03:16;;;;;;;1.98;1.20;;;35.70;50.20;;;;;;8588329;27;20007;-85
2024/04/13 14:07:18;;;;;;;1.27;0.80;;;35.90;44.70;;;;;;8588694;27;20014;-85
2024/04/13 14:11:21;;;;;;;1.70;0.90;;;36.00;46.50;;;;;;8623258;27;20457;-85
2024/04/13 14:15:25;;;;;;;1.10;0.90;;;35.40;45.10;;;;;;8616051;27;20000;-85
2024/04/13 14:19:28;;;;;;;3.03;1.13;;;35.80;51.10;;;;;;8585526;27;20039;-85
2024/04/13 14:23:29;;;;;;;0.85;0.80;;;35.00;47.70;;;;;;8587982;27;20007;-85
2024/04/13 14:27:32;;;;;;;2.83;0.85;;;34.60;45.60;;;;;;8613408;27;20016;-86
2024/04/13 14:31:33;;;;;;;1.35;0.77;;;34.40;48.30;;;;;;8558361;22;20052;-88
2024/04/13 14:35:58;;;;;;;;;;;;;;;;;;;;;
2024/04/13 14:40:08;;;;;;;2.20;0.90;;;34.30;46.90;;;;;;8552445;27;20015;-88
2024/04/13 14:44:09;;;;;;;0.80;0.70;;;32.80;48.60;;;;;;8508722;27;20027;-88
2024/04/13 14:48:18;;;;;;;1.50;0.88;;;33.10;50.80;;;;;;8520422;27;20013;-88
2024/04/13 14:52:24;;;;;;;0.70;0.70;;;33.50;47.50;;;;;;8527684;27;20541;-88
2024/04/13 14:56:36;;;;;;;1.90;0.93;;;33.50;48.10;;;;;;8517760;27;20004;-88
2024/04/13 15:00:52;;;;;;;;;;;;;;;;;;;;;
2024/04/13 15:04:59;;;;;;;1.75;1.00;;;33.00;49.20;;;;;;8549328;27;20354;-87
2024/04/13 15:09:00;;;;;;;1.00;0.80;;;32.20;51.60;;;;;;8532807;27;20016;-86
2024/04/13 15:13:12;;;;;;;2.38;0.73;;;30.40;52.90;;;;;;8519295;27;20630;-88
2024/04/13 15:17:19;;;;;;;0.73;0.60;;;30.00;56.30;;;;;;8530217;27;20012;-86
2024/04/13 15:21:43;;;;;;;1.40;0.70;;;30.80;51.30;;;;;;8560394;27;20032;-86
2024/04/13 15:25:47;;;;;;;2.15;0.93;;;31.00;49.70;;;;;;8568282;27;20024;-88
2024/04/13 15:30:00;;;;;;;1.90;0.80;;;32.60;46.20;;;;;;8525189;27;20349;-88
2024/04/13 15:34:01;;;;;;;0.80;0.70;;;32.60;49.00;;;;;;8520922;27;20008;-87
2024/04/13 15:38:02;;;;;;;0.60;0.60;;;31.70;48.40;;;;;;8531030;27;20366;-87
2024/04/13 15:42:06;;;;;;;1.50;0.88;;;30.40;49.60;;;;;;8520654;27;20015;-88
2024/04/13 15:46:24;;;;;;;3.17;0.88;;;30.10;51.70;;;;;;8531540;27;20023;-88
2024/04/13 15:50:28;;;;;;;1.92;0.95;;;29.60;51.20;;;;;;8529755;27;20019;-88
2024/04/13 15:54:29;;;;;;;1.73;1.15;;;29.50;52.00;;;;;;8525527;27;20100;-88
2024/04/13 15:58:36;;;;;;;1.63;1.17;;;29.50;54.50;;;;;;8525988;27;20017;-87
2024/04/13 16:02:42;;;;;;;1.95;0.93;;;28.80;54.30;;;;;;8533032;27;20091;-88
2024/04/13 16:06:43;;;;;;;2.90;0.90;;;27.60;56.40;;;;;;8526641;27;20020;-88
2024/04/13 16:10:47;;;;;;;2.33;1.00;;;26.80;58.40;;;;;;8536453;27;20335;-88
2024/04/13 16:14:55;;;;;;;4.60;1.30;;;26.20;59.50;;;;;;8527079;27;20013;-88
2024/04/13 16:19:01;;;;;;;3.00;1.00;;;25.60;64.10;;;;;;8530155;27;20001;-88
2024/04/13 16:23:14;;;;;;;1.92;1.20;;;25.00;65.20;;;;;;8528230;27;20023;-88
2024/04/13 16:27:17;;;;;;;1.77;1.20;;;24.70;64.80;;;;;;8526221;27;20005;-88
2024/04/13 16:31:20;;;;;;;2.42;1.10;;;24.40;73.10;;;;;;8531415;27;20012;-88
2024/04/13 16:35:31;;;;;;;3.00;1.10;;;24.30;75.10;;;;;;8529826;27;20001;-88
2024/04/13 16:39:59;;;;;;;;;;;24.20;74.50;;;;;;8519789;27;20450;-88
2024/04/13 16:44:06;;;;;;;1.73;1.17;;;23.90;70.80;;;;;;8522739;27;19929;-88
2024/04/13 16:48:09;;;;;;;1.92;1.25;;;23.70;69.80;;;;;;8517016;27;20004;-88
2024/04/13 16:52:18;;;;;;;1.25;1.13;;;23.50;73.30;;;;;;8527201;27;20000;-88
2024/04/13 16:57:17;;;;;;;2.22;1.00;;;23.10;73.20;;;;;;8528199;27;20005;-88
2024/04/13 17:05:58;;;;;;;;;;;22.60;73.20;;;;;;9057058;22;20048;-88
2024/04/13 17:09:58;;;;;;;2.40;1.00;;;22.30;80.10;;;;;;8576310;27;20329;-87
2024/04/13 17:14:07;;;;;;;2.78;1.30;;;21.80;84.70;;;;;;8518786;27;20020;-87
2024/04/13 17:18:22;;;;;;;1.35;1.08;;;21.50;86.70;;;;;;8541899;27;20004;-87
2024/04/13 17:22:43;;;;;;;1.52;1.30;;;21.20;87.70;;;;;;8517578;27;20397;-86
2024/04/13 17:26:50;;;;;;;1.77;1.25;;;20.70;91.50;;;;;;8526135;27;20017;-86
2024/04/13 17:31:05;;;;;;;2.10;1.20;;;20.40;92.90;;;;;;8525214;27;20487;-87
2024/04/13 17:40:25;;;;;;;1.98;1.52;;;19.60;95.00;;;;;;8902967;22;20004;-86
2024/04/13 17:54:50;;;;;;;2.75;2.05;;;18.50;99.10;;;;;;8689066;27;20035;-86
2024/04/13 18:49:46;;;;;;;5.13;2.80;;;14.50;99.90;;;;;;8648071;27;20004;-83
2024/04/13 18:53:46;;;;;;;8.70;4.07;;;14.40;99.90;;;;;;8596872;27;20011;-84
2024/04/13 18:57:47;;;;;;;4.30;3.50;;;14.30;99.90;;;;;;8598821;27;20454;-84
2024/04/13 19:01:47;;;;;;;4.95;3.85;;;14.10;99.90;;;;;;8604856;27;20122;-84
2024/04/13 19:05:48;;;;;;;7.38;4.10;;;14.00;99.90;;;;;;8598740;27;20008;-84
2024/04/13 19:09:49;;;;;;;9.65;3.50;;;13.80;99.90;;;;;;8593710;27;20061;-83
2024/04/13 19:13:51;;;;;;;5.80;3.30;;;13.60;99.90;;;;;;8607866;27;20123;-82
2024/04/13 19:17:52;;;;;;;5.50;3.70;;;13.50;99.90;;;;;;8596275;27;20000;-84
2024/04/13 19:21:52;;;;;;;6.15;4.25;;;13.60;99.90;;;;;;8599412;27;20003;-84
2024/04/13 19:26:02;;;;;;;9.27;6.00;;;13.50;99.90;;;;;;8604662;27;20000;-83
2024/04/13 19:41:21;;;;;;;5.30;3.45;;;13.10;99.90;;;;;;8266476;28;20134;-83
2024/04/13 19:46:21;;;;;;;4.40;3.42;;;12.90;99.90;;;;;;8579264;27;20015;-84
2024/04/13 20:05:33;;;;;;;;;;;;;;;;;;;;;
2024/04/13 20:31:24;;;;;;;5.88;3.85;;;11.90;99.90;;;;;;8605516;27;20004;-84
2024/04/13 20:44:50;;;;;;;7.80;4.40;;;11.30;99.90;;;;;;8808001;22;20016;-84
2024/04/13 20:49:37;;;;;;;6.70;4.03;;;11.20;99.90;;;;;;8563495;27;20083;-83
2024/04/13 21:50:39;;;;;;;5.00;3.03;;;10.00;99.90;;;;;;8576755;22;20059;-83
2024/04/13 21:55:37;;;;;;;5.00;3.10;;;9.90;99.90;;;;;;8650847;27;20009;-84
2024/04/13 21:59:42;;;;;;;3.42;2.92;;;9.90;99.90;;;;;;8642542;27;20048;-84
2024/04/13 22:04:50;;;;;;;;;;;;;;;;;;;;;
2024/04/13 22:13:39;;;;;;;;;;;;;;;;;;;;;
2024/04/13 23:22:31;;;;;;;3.65;2.28;;;9.10;99.90;;;;;;8592701;27;20015;-84
2024/04/13 23:26:33;;;;;;;6.88;2.80;;;9.00;99.90;;;;;;8591296;27;20001;-83
